createdAt,value
2018-01-22T00:02:01.595Z,3.10
2018-01-22T00:04:29.745Z,3.10
2018-01-22T00:06:57.888Z,3.10
2018-01-22T00:09:25.990Z,3.30
2018-01-22T00:11:54.136Z,3.60
2018-01-22T00:14:22.715Z,3.60
2018-01-22T00:16:51.358Z,3.50
2018-01-22T00:19:20.235Z,3.60
2018-01-22T00:21:48.362Z,3.60
2018-01-22T00:24:16.488Z,3.70
2018-01-22T00:26:45.391Z,3.70
2018-01-22T00:29:14.277Z,3.70
2018-01-22T00:31:42.441Z,3.70
2018-01-22T00:34:10.540Z,3.60
2018-01-22T00:36:38.680Z,3.50
2018-01-22T00:39:06.778Z,3.40
2018-01-22T00:41:34.907Z,3.30
2018-01-22T00:44:03.034Z,3.30
2018-01-22T00:46:31.175Z,3.30
2018-01-22T00:48:59.285Z,3.40
2018-01-22T00:51:27.428Z,3.40
2018-01-22T00:53:55.526Z,3.40
2018-01-22T00:56:23.669Z,3.40
2018-01-22T00:58:51.785Z,3.30
2018-01-22T01:01:19.911Z,3.20
2018-01-22T01:03:48.016Z,3.10
2018-01-22T01:06:16.167Z,3.00
2018-01-22T01:08:44.261Z,2.90
2018-01-22T01:11:12.393Z,2.80
2018-01-22T01:13:40.502Z,2.80
2018-01-22T01:16:08.653Z,2.70
2018-01-22T01:18:36.759Z,2.60
2018-01-22T01:21:04.891Z,2.60
2018-01-22T01:23:32.989Z,2.50
2018-01-22T01:26:01.395Z,2.50
2018-01-22T01:28:29.738Z,2.40
2018-01-22T01:30:58.642Z,2.40
2018-01-22T01:33:26.765Z,2.40
2018-01-22T01:35:54.908Z,2.40
2018-01-22T01:38:23.019Z,2.40
2018-01-22T01:40:51.164Z,2.40
2018-01-22T01:43:19.278Z,2.40
2018-01-22T01:45:47.437Z,2.40
2018-01-22T01:48:15.565Z,2.40
2018-01-22T01:50:43.703Z,2.30
2018-01-22T01:53:12.591Z,2.20
2018-01-22T01:55:40.726Z,2.20
2018-01-22T01:58:08.839Z,2.20
2018-01-22T02:00:36.979Z,2.20
2018-01-22T02:03:05.103Z,2.30
2018-01-22T02:05:34.005Z,2.40
2018-01-22T02:08:02.486Z,2.30
2018-01-22T02:10:30.718Z,2.30
2018-01-22T02:12:58.829Z,2.30
2018-01-22T02:15:26.972Z,2.30
2018-01-22T02:17:55.532Z,2.20
2018-01-22T02:20:23.636Z,2.10
2018-01-22T02:22:51.814Z,2.10
2018-01-22T02:25:19.910Z,2.10
2018-01-22T02:27:48.050Z,2.10
2018-01-22T02:30:16.155Z,2.20
2018-01-22T02:32:44.291Z,2.20
2018-01-22T02:35:13.190Z,2.30
2018-01-22T02:37:41.339Z,2.30
2018-01-22T02:40:09.447Z,2.30
2018-01-22T02:42:38.342Z,2.30
2018-01-22T02:45:07.224Z,2.30
2018-01-22T02:47:35.358Z,2.30
2018-01-22T02:50:03.494Z,2.30
2018-01-22T02:52:31.635Z,2.20
2018-01-22T02:54:59.738Z,2.20
2018-01-22T02:57:27.898Z,2.30
2018-01-22T02:59:56.784Z,2.20
2018-01-22T03:02:26.154Z,2.20
2018-01-22T03:04:54.269Z,2.20
2018-01-22T03:07:23.183Z,2.20
2018-01-22T03:09:51.291Z,2.20
2018-01-22T03:12:19.443Z,2.20
2018-01-22T03:14:47.555Z,2.20
2018-01-22T03:17:15.723Z,2.20
2018-01-22T03:19:43.836Z,2.20
2018-01-22T03:22:11.972Z,2.20
2018-01-22T03:24:40.078Z,2.20
2018-01-22T03:27:08.207Z,2.20
2018-01-22T03:29:36.328Z,2.10
2018-01-22T03:32:04.467Z,2.20
2018-01-22T03:34:32.574Z,2.20
2018-01-22T03:37:00.728Z,2.20
2018-01-22T03:39:29.622Z,2.10
2018-01-22T03:41:58.530Z,2.00
2018-01-22T03:44:27.098Z,2.00
2018-01-22T03:46:55.986Z,2.00
2018-01-22T03:49:24.871Z,2.00
2018-01-22T03:51:53.782Z,2.00
2018-01-22T03:54:21.895Z,1.90
2018-01-22T03:56:50.031Z,2.00
2018-01-22T03:59:18.144Z,2.00
2018-01-22T04:01:46.297Z,2.00
2018-01-22T04:04:14.442Z,2.00
2018-01-22T04:06:43.343Z,2.10
2018-01-22T04:09:11.466Z,2.00
2018-01-22T04:11:39.607Z,2.00
2018-01-22T04:14:07.715Z,2.00
2018-01-22T04:16:35.884Z,1.90
2018-01-22T04:19:03.990Z,1.90
2018-01-22T04:21:32.890Z,1.80
2018-01-22T04:24:01.773Z,1.80
2018-01-22T04:26:30.680Z,1.90
2018-01-22T04:28:58.791Z,1.80
2018-01-22T04:31:26.930Z,1.90
2018-01-22T04:33:55.034Z,1.90
2018-01-22T04:36:23.167Z,1.90
2018-01-22T04:38:51.274Z,1.90
2018-01-22T04:41:19.431Z,2.00
2018-01-22T04:43:47.534Z,2.00
2018-01-22T04:46:15.661Z,2.10
2018-01-22T04:48:43.769Z,2.10
2018-01-22T04:51:11.899Z,2.10
2018-01-22T04:53:40.082Z,2.10
2018-01-22T04:56:08.971Z,2.10
2018-01-22T04:58:37.902Z,2.00
2018-01-22T05:01:06.042Z,2.00
2018-01-22T05:03:34.183Z,2.10
2018-01-22T05:06:02.301Z,2.00
2018-01-22T05:08:30.422Z,2.10
2018-01-22T05:10:58.540Z,2.10
2018-01-22T05:13:26.689Z,2.10
2018-01-22T05:15:54.806Z,2.10
2018-01-22T05:18:22.949Z,2.20
2018-01-22T05:20:51.823Z,2.20
2018-01-22T05:23:20.738Z,2.20
2018-01-22T05:25:48.850Z,2.20
2018-01-22T05:28:16.995Z,2.20
2018-01-22T05:30:45.123Z,2.20
2018-01-22T05:33:13.251Z,2.20
2018-01-22T05:35:41.376Z,2.20
2018-01-22T05:38:10.280Z,2.20
2018-01-22T05:40:39.175Z,2.20
2018-01-22T05:43:07.348Z,2.20
2018-01-22T05:45:36.214Z,2.10
2018-01-22T05:48:04.376Z,2.10
2018-01-22T05:50:32.474Z,2.00
2018-01-22T05:53:01.374Z,2.00
2018-01-22T05:55:30.255Z,1.90
2018-01-22T05:57:59.177Z,1.90
2018-01-22T06:00:27.298Z,1.90
2018-01-22T06:02:55.433Z,1.90
2018-01-22T06:05:23.554Z,1.90
2018-01-22T06:07:51.697Z,1.80
2018-01-22T06:10:19.831Z,1.80
2018-01-22T06:12:47.987Z,1.70
2018-01-22T06:15:16.870Z,1.80
2018-01-22T06:17:45.801Z,1.80
2018-01-22T06:20:13.927Z,1.80
2018-01-22T06:22:42.078Z,1.80
2018-01-22T06:25:10.208Z,1.80
2018-01-22T06:27:39.125Z,1.70
2018-01-22T06:30:07.245Z,1.60
2018-01-22T06:32:35.400Z,1.60
2018-01-22T06:35:03.502Z,1.60
2018-01-22T06:37:32.413Z,1.50
2018-01-22T06:40:00.542Z,1.50
2018-01-22T06:42:28.675Z,1.50
2018-01-22T06:44:56.790Z,1.50
2018-01-22T06:47:24.935Z,1.60
2018-01-22T06:49:53.048Z,1.50
2018-01-22T06:52:21.950Z,1.50
2018-01-22T06:54:50.843Z,1.50
2018-01-22T06:57:19.754Z,1.50
2018-01-22T06:59:47.889Z,1.40
2018-01-22T07:02:16.031Z,1.40
2018-01-22T07:04:44.144Z,1.40
2018-01-22T07:07:13.055Z,1.40
2018-01-22T07:09:41.171Z,1.40
2018-01-22T07:12:09.302Z,1.40
2018-01-22T07:14:37.427Z,1.50
2018-01-22T07:17:05.677Z,1.50
2018-01-22T07:19:33.803Z,1.40
2018-01-22T07:22:01.957Z,1.40
2018-01-22T07:24:30.575Z,1.40
2018-01-22T07:26:59.480Z,1.50
2018-01-22T07:29:27.612Z,1.50
2018-01-22T07:31:55.739Z,1.50
2018-01-22T07:34:23.907Z,1.50
2018-01-22T07:36:52.048Z,1.50
2018-01-22T07:39:20.947Z,1.50
2018-01-22T07:41:49.824Z,1.50
2018-01-22T07:44:17.968Z,1.50
2018-01-22T07:46:46.088Z,1.50
2018-01-22T07:49:14.990Z,1.60
2018-01-22T07:51:43.130Z,1.50
2018-01-22T07:54:11.274Z,1.50
2018-01-22T07:56:39.447Z,1.60
2018-01-22T07:59:07.585Z,1.60
2018-01-22T08:01:35.699Z,1.60
2018-01-22T08:04:04.403Z,1.50
2018-01-22T08:06:32.511Z,1.60
2018-01-22T08:09:01.130Z,1.50
2018-01-22T08:11:29.235Z,1.60
2018-01-22T08:13:57.491Z,1.60
2018-01-22T08:16:26.113Z,1.60
2018-01-22T08:18:55.008Z,1.50
2018-01-22T08:21:23.900Z,1.50
2018-01-22T08:23:52.850Z,1.50
2018-01-22T08:26:20.971Z,1.50
2018-01-22T08:28:49.876Z,1.50
2018-01-22T08:31:17.989Z,1.50
2018-01-22T08:33:46.132Z,1.60
2018-01-22T08:36:14.238Z,1.60
2018-01-22T08:38:42.379Z,1.70
2018-01-22T08:41:10.491Z,1.80
2018-01-22T08:43:38.641Z,1.80
2018-01-22T08:46:06.969Z,1.70
2018-01-22T08:48:36.187Z,1.50
2018-01-22T08:51:04.933Z,1.50
2018-01-22T08:53:33.063Z,1.40
2018-01-22T08:56:01.517Z,1.40
2018-01-22T08:58:29.909Z,1.30
2018-01-22T09:00:58.033Z,1.30
2018-01-22T09:03:26.172Z,1.30
2018-01-22T09:05:54.306Z,1.30
2018-01-22T09:08:23.206Z,1.30
2018-01-22T09:10:52.071Z,1.30
2018-01-22T09:13:20.214Z,1.30
2018-01-22T09:15:48.318Z,1.30
2018-01-22T09:18:16.456Z,1.30
2018-01-22T09:20:44.659Z,1.30
2018-01-22T09:23:12.795Z,1.30
2018-01-22T09:25:40.906Z,1.30
2018-01-22T09:28:09.067Z,1.30
2018-01-22T09:30:37.186Z,1.30
2018-01-22T09:33:06.079Z,1.40
2018-01-22T09:35:34.188Z,1.40
2018-01-22T09:38:02.910Z,1.50
2018-01-22T09:40:31.402Z,1.50
2018-01-22T09:42:59.543Z,1.50
2018-01-22T09:45:27.654Z,1.60
2018-01-22T09:47:55.807Z,1.70
2018-01-22T09:50:24.119Z,1.80
2018-01-22T09:52:52.274Z,1.80
2018-01-22T09:55:20.386Z,1.90
2018-01-22T09:57:48.531Z,2.00
2018-01-22T10:00:17.406Z,2.10
2018-01-22T10:02:45.813Z,2.10
2018-01-22T10:05:14.709Z,2.20
2018-01-22T10:07:42.816Z,2.20
2018-01-22T10:10:11.259Z,2.20
2018-01-22T10:12:40.764Z,2.30
2018-01-22T10:15:09.924Z,2.20
2018-01-22T10:17:40.568Z,2.20
2018-01-22T10:20:08.917Z,2.20
2018-01-22T10:22:37.669Z,2.20
2018-01-22T10:25:05.917Z,2.30
2018-01-22T10:27:34.015Z,2.30
2018-01-22T10:30:02.560Z,2.40
2018-01-22T10:32:30.774Z,2.50
2018-01-22T10:35:04.676Z,2.50
2018-01-22T10:37:33.338Z,2.50
2018-01-22T10:40:02.235Z,2.60
2018-01-22T10:42:31.109Z,2.50
2018-01-22T10:44:59.855Z,2.50
2018-01-22T10:47:34.346Z,2.50
2018-01-22T10:50:04.605Z,2.40
2018-01-22T10:52:35.801Z,2.30
2018-01-22T10:55:05.010Z,2.50
2018-01-22T10:57:33.886Z,2.60
2018-01-22T11:00:02.014Z,2.60
2018-01-22T11:02:44.996Z,2.60
2018-01-22T11:05:13.901Z,2.70
2018-01-22T11:07:42.480Z,2.70
2018-01-22T11:10:10.636Z,2.70
2018-01-22T11:12:39.525Z,2.70
2018-01-22T11:15:08.416Z,2.70
2018-01-22T11:17:36.514Z,2.70
2018-01-22T11:20:05.246Z,2.80
2018-01-22T11:22:33.357Z,2.90
2018-01-22T11:25:02.654Z,2.90
2018-01-22T11:27:30.944Z,2.90
2018-01-22T11:29:59.830Z,3.00
2018-01-22T11:32:28.697Z,2.90
2018-01-22T11:34:56.831Z,2.90
2018-01-22T11:37:24.937Z,2.90
2018-01-22T11:39:53.073Z,2.90
2018-01-22T11:42:21.180Z,3.00
2018-01-22T11:44:49.307Z,2.90
2018-01-22T11:47:17.421Z,2.90
2018-01-22T11:49:45.560Z,2.90
2018-01-22T11:52:13.668Z,2.90
2018-01-22T11:54:41.791Z,3.10
2018-01-22T11:57:09.896Z,3.20
2018-01-22T11:59:38.029Z,3.20
2018-01-22T12:02:06.897Z,3.10
2018-01-22T12:04:35.039Z,3.10
2018-01-22T12:07:04.307Z,3.30
2018-01-22T12:09:32.426Z,3.30
2018-01-22T12:12:00.531Z,3.30
2018-01-22T12:14:29.418Z,3.50
2018-01-22T12:16:58.297Z,3.70
2018-01-22T12:19:27.214Z,3.60
2018-01-22T12:21:55.307Z,3.60
2018-01-22T12:24:23.438Z,3.60
2018-01-22T12:26:52.309Z,3.60
2018-01-22T12:29:20.452Z,3.60
2018-01-22T12:31:48.578Z,3.60
2018-01-22T12:34:17.976Z,3.90
2018-01-22T12:36:46.898Z,4.00
2018-01-22T12:39:15.027Z,4.00
2018-01-22T12:41:43.115Z,4.10
2018-01-22T12:44:12.007Z,4.00
2018-01-22T12:46:40.880Z,4.00
2018-01-22T12:49:09.011Z,4.00
2018-01-22T12:51:37.119Z,4.00
2018-01-22T12:54:05.316Z,4.10
2018-01-22T12:56:34.192Z,4.30
2018-01-22T12:59:02.313Z,4.30
2018-01-22T13:01:31.183Z,4.40
2018-01-22T13:04:00.098Z,4.50
2018-01-22T13:06:28.199Z,4.50
2018-01-22T13:08:56.359Z,4.50
2018-01-22T13:11:24.477Z,4.60
2018-01-22T13:13:53.376Z,4.70
2018-01-22T13:16:22.250Z,4.70
2018-01-22T13:18:50.412Z,4.70
2018-01-22T13:21:18.519Z,4.70
2018-01-22T13:23:47.407Z,4.70
2018-01-22T13:26:16.271Z,4.80
2018-01-22T13:28:44.400Z,4.80
2018-01-22T13:31:12.509Z,4.60
2018-01-22T13:33:40.611Z,4.60
2018-01-22T13:36:09.504Z,4.50
2018-01-22T13:38:38.386Z,4.60
2018-01-22T13:41:12.460Z,4.60
2018-01-22T13:43:40.558Z,4.60
2018-01-22T13:46:08.695Z,4.50
2018-01-22T13:48:36.793Z,4.40
2018-01-22T13:51:04.916Z,4.30
2018-01-22T13:53:33.023Z,4.30
2018-01-22T13:56:01.285Z,4.20
2018-01-22T13:58:29.583Z,4.40
2018-01-22T14:00:57.710Z,4.40
2018-01-22T14:03:26.589Z,4.40
2018-01-22T14:05:55.491Z,4.40
2018-01-22T14:08:23.593Z,4.40
2018-01-22T14:10:51.716Z,4.50
2018-01-22T14:13:19.822Z,4.40
2018-01-22T14:15:48.308Z,4.60
2018-01-22T14:18:17.157Z,4.70
2018-01-22T14:20:45.288Z,4.60
2018-01-22T14:23:13.397Z,4.70
2018-01-22T14:25:41.528Z,4.50
2018-01-22T14:28:09.634Z,4.50
2018-01-22T14:30:37.755Z,4.70
2018-01-22T14:33:05.877Z,4.70
2018-01-22T14:35:34.004Z,4.70
2018-01-22T14:38:02.403Z,4.80
2018-01-22T14:40:30.673Z,4.80
2018-01-22T14:42:58.779Z,4.90
2018-01-22T14:45:27.101Z,5.10
2018-01-22T14:47:55.974Z,5.10
2018-01-22T14:50:24.125Z,5.10
2018-01-22T14:52:52.248Z,5.10
2018-01-22T14:55:21.130Z,5.10
2018-01-22T14:57:49.245Z,5.10
2018-01-22T15:00:17.379Z,4.90
2018-01-22T15:02:45.492Z,4.80
2018-01-22T15:05:14.211Z,4.60
2018-01-22T15:07:43.094Z,4.90
2018-01-22T15:10:11.226Z,4.90
2018-01-22T15:12:39.470Z,5.00
2018-01-22T15:15:08.376Z,4.90
2018-01-22T15:17:36.528Z,4.90
2018-01-22T15:20:04.651Z,5.00
2018-01-22T15:22:32.773Z,5.00
2018-01-22T15:25:00.908Z,5.10
2018-01-22T15:27:29.021Z,4.90
2018-01-22T15:29:57.915Z,4.80
2018-01-22T15:32:26.792Z,4.70
2018-01-22T15:34:54.920Z,4.70
2018-01-22T15:37:23.029Z,4.60
2018-01-22T15:39:51.160Z,4.70
2018-01-22T15:42:19.274Z,4.60
2018-01-22T15:44:47.402Z,4.60
2018-01-22T15:47:15.647Z,4.70
2018-01-22T15:49:44.551Z,4.70
2018-01-22T15:52:12.934Z,4.70
2018-01-22T15:54:41.816Z,5.00
2018-01-22T15:59:40.452Z,5.00
2018-01-22T16:02:08.555Z,5.00
2018-01-22T16:04:36.695Z,4.90
2018-01-22T16:07:04.804Z,5.00
2018-01-22T16:09:32.926Z,4.90
2018-01-22T16:12:01.111Z,5.00
2018-01-22T16:14:29.227Z,5.10
2018-01-22T16:16:57.367Z,4.90
2018-01-22T16:19:25.955Z,5.00
2018-01-22T16:21:54.104Z,4.90
2018-01-22T16:24:22.300Z,4.90
2018-01-22T16:26:50.450Z,4.90
2018-01-22T16:29:18.567Z,4.90
2018-01-22T16:31:46.706Z,5.00
2018-01-22T16:34:14.827Z,5.00
2018-01-22T16:36:43.142Z,5.00
2018-01-22T16:39:11.259Z,4.90
2018-01-22T16:41:41.012Z,5.00
2018-01-22T16:44:09.162Z,5.00
2018-01-22T16:46:38.229Z,5.10
2018-01-22T16:49:06.454Z,5.00
2018-01-22T16:51:35.362Z,5.10
2018-01-22T16:54:03.641Z,5.10
2018-01-22T16:56:32.050Z,5.10
2018-01-22T16:59:00.167Z,5.30
2018-01-22T17:01:28.299Z,5.30
2018-01-22T17:03:56.444Z,5.40
2018-01-22T17:06:26.445Z,5.50
2018-01-22T17:08:55.554Z,5.50
2018-01-22T17:11:23.686Z,5.60
2018-01-22T17:13:51.794Z,5.60
2018-01-22T17:16:19.935Z,5.60
2018-01-22T17:18:48.072Z,5.50
2018-01-22T17:21:16.201Z,5.60
2018-01-22T17:23:45.077Z,5.70
2018-01-22T17:26:13.221Z,5.60
2018-01-22T17:28:41.333Z,5.60
2018-01-22T17:31:09.488Z,5.60
2018-01-22T17:33:37.602Z,5.70
2018-01-22T17:36:05.744Z,5.70
2018-01-22T17:38:33.857Z,5.90
2018-01-22T17:41:02.691Z,5.90
2018-01-22T17:43:31.611Z,5.90
2018-01-22T17:46:00.539Z,5.90
2018-01-22T17:48:28.778Z,5.90
2018-01-22T17:50:57.723Z,5.90
2018-01-22T17:53:25.899Z,5.80
2018-01-22T17:55:54.031Z,5.80
2018-01-22T17:58:22.910Z,5.70
2018-01-22T18:00:51.850Z,5.60
2018-01-22T18:03:19.979Z,5.60
2018-01-22T18:05:49.442Z,5.70
2018-01-22T18:08:17.743Z,5.70
2018-01-22T18:10:45.889Z,5.90
2018-01-22T18:13:14.041Z,6.10
2018-01-22T18:15:42.176Z,5.90
2018-01-22T18:18:11.067Z,5.60
2018-01-22T18:20:39.203Z,5.60
2018-01-22T18:23:07.320Z,5.60
2018-01-22T18:25:36.246Z,5.70
2018-01-22T18:28:04.681Z,5.70
2018-01-22T18:30:33.602Z,5.90
2018-01-22T18:33:02.261Z,5.80
2018-01-22T18:35:30.461Z,5.90
2018-01-22T18:37:58.613Z,5.90
2018-01-22T18:40:26.780Z,5.70
2018-01-22T18:42:58.192Z,5.60
2018-01-22T18:45:26.360Z,5.40
2018-01-22T18:47:54.483Z,5.20
2018-01-22T18:50:22.589Z,5.20
2018-01-22T18:52:50.753Z,5.10
2018-01-22T18:55:18.871Z,5.00
2018-01-22T18:57:47.224Z,5.10
2018-01-22T19:00:15.393Z,5.20
2018-01-22T19:02:43.544Z,5.40
2018-01-22T19:05:11.706Z,5.30
2018-01-22T19:07:40.623Z,5.40
2018-01-22T19:10:09.319Z,5.40
2018-01-22T19:12:37.537Z,5.60
2018-01-22T19:17:36.100Z,5.70
2018-01-22T19:20:04.206Z,5.70
2018-01-22T19:22:32.343Z,5.70
2018-01-22T19:25:00.458Z,5.80
2018-01-22T19:27:28.594Z,5.50
2018-01-22T19:29:56.710Z,5.30
2018-01-22T19:32:24.879Z,5.30
2018-01-22T19:34:53.282Z,5.20
2018-01-22T19:37:22.200Z,5.30
2018-01-22T19:39:50.307Z,5.30
2018-01-22T19:42:18.442Z,5.30
2018-01-22T19:44:46.547Z,5.10
2018-01-22T19:47:14.684Z,5.20
2018-01-22T19:49:42.798Z,5.20
2018-01-22T19:52:10.943Z,5.20
2018-01-22T19:54:39.050Z,5.20
2018-01-22T19:57:07.187Z,5.20
2018-01-22T19:59:35.292Z,5.40
2018-01-22T20:02:03.431Z,5.50
2018-01-22T20:04:31.635Z,5.60
2018-01-22T20:07:00.137Z,5.50
2018-01-22T20:09:28.254Z,5.70
2018-01-22T20:11:56.412Z,5.70
2018-01-22T20:14:25.287Z,5.50
2018-01-22T20:16:53.445Z,5.50
2018-01-22T20:19:21.555Z,5.50
2018-01-22T20:21:50.459Z,5.40
2018-01-22T20:24:18.559Z,5.40
2018-01-22T20:26:46.699Z,5.50
2018-01-22T20:29:14.821Z,5.70
2018-01-22T20:31:42.959Z,5.70
2018-01-22T20:34:11.071Z,5.70
2018-01-22T20:36:39.199Z,5.70
2018-01-22T20:39:07.334Z,5.80
2018-01-22T20:41:35.459Z,5.80
2018-01-22T20:44:03.934Z,5.90
2018-01-22T20:46:32.110Z,5.90
2018-01-22T20:49:00.222Z,5.90
2018-01-22T20:51:28.401Z,6.00
2018-01-22T20:53:57.300Z,6.10
2018-01-22T20:56:25.420Z,6.10
2018-01-22T20:58:53.563Z,6.20
2018-01-22T21:01:23.465Z,6.30
2018-01-22T21:03:51.582Z,6.30
2018-01-22T21:06:19.716Z,6.20
2018-01-22T21:08:48.959Z,6.30
2018-01-22T21:11:17.089Z,6.30
2018-01-22T21:13:45.974Z,6.50
2018-01-22T21:16:14.112Z,6.50
2018-01-22T21:18:42.229Z,6.60
2018-01-22T21:21:11.102Z,6.50
2018-01-22T21:23:39.226Z,6.50
2018-01-22T21:26:07.336Z,6.60
2018-01-22T21:28:35.464Z,6.60
2018-01-22T21:31:03.814Z,6.60
2018-01-22T21:33:32.709Z,6.70
2018-01-22T21:36:01.609Z,6.80
2018-01-22T21:38:30.499Z,6.70
2018-01-22T21:40:59.369Z,6.60
2018-01-22T21:43:27.508Z,6.60
2018-01-22T21:45:55.643Z,6.80
2018-01-22T21:48:24.537Z,6.70
2018-01-22T21:50:53.166Z,6.70
2018-01-22T21:53:21.311Z,6.70
2018-01-22T21:55:49.436Z,6.80
2018-01-22T21:58:17.570Z,6.80
2018-01-22T22:00:45.683Z,6.80
2018-01-22T22:03:13.810Z,6.90
2018-01-22T22:05:42.043Z,6.90
2018-01-22T22:08:10.260Z,6.90
2018-01-22T22:10:38.374Z,6.90
2018-01-22T22:13:06.494Z,7.00
2018-01-22T22:15:34.603Z,7.00
2018-01-22T22:18:02.739Z,7.00
2018-01-22T22:20:30.844Z,7.00
2018-01-22T22:22:58.988Z,7.00
2018-01-22T22:25:27.086Z,6.90
2018-01-22T22:27:55.993Z,6.80
2018-01-22T22:30:24.095Z,6.80
2018-01-22T22:32:52.996Z,6.80
2018-01-22T22:35:21.878Z,6.90
2018-01-22T22:37:50.772Z,7.00
2018-01-22T22:40:19.657Z,6.90
2018-01-22T22:42:48.556Z,6.80
2018-01-22T22:45:17.443Z,6.80
2018-01-22T22:47:46.395Z,7.00
2018-01-22T22:50:14.484Z,6.90
2018-01-22T22:52:42.635Z,6.90
2018-01-22T22:55:10.741Z,6.90
2018-01-22T22:57:39.660Z,6.90
2018-01-22T23:00:07.778Z,6.90
2018-01-22T23:02:37.674Z,6.80
2018-01-22T23:05:05.788Z,6.80
2018-01-22T23:07:33.928Z,6.80
2018-01-22T23:10:02.462Z,6.80
2018-01-22T23:12:30.729Z,6.80
2018-01-22T23:14:58.847Z,6.70
2018-01-22T23:17:26.983Z,6.70
2018-01-22T23:19:55.883Z,6.80
2018-01-22T23:22:24.789Z,6.90
2018-01-22T23:24:52.900Z,6.80
2018-01-22T23:27:21.044Z,6.80
2018-01-22T23:29:49.146Z,6.80
2018-01-22T23:32:18.046Z,6.80
2018-01-22T23:34:46.161Z,6.80
2018-01-22T23:37:14.313Z,6.80
2018-01-22T23:39:42.418Z,6.80
2018-01-22T23:42:10.566Z,6.70
2018-01-22T23:44:38.802Z,6.70
2018-01-22T23:47:06.923Z,6.60
2018-01-22T23:49:35.807Z,6.60
2018-01-22T23:52:04.790Z,6.70
2018-01-22T23:54:32.899Z,6.60
2018-01-22T23:57:01.007Z,6.50
2018-01-22T23:59:29.144Z,6.60
